シドニー の空港の天気 - METARとTAF

シドニー国際空港 ( YSSY / SYD ) - オーストラリア ニューサウスウェールズ州、Mascot
飛行場実況気象(Metar)
観測時間03/26 17:30 AEDT (03/26 06:30 UTC)
風向・風速東北東 8m/s
視程10km以上
天気現象
少しの雲 雲底高度 790m
全天の4割程度の雲 雲底高度 8230m
気温26℃
湿度74%
気圧1014hPa
METARYSSY 260630Z 06015KT 9999 FEW026 SCT270 26/21 Q1014 NOSIG
過去の天気等 Google飛行場航空写真 Wunderground天気予報

過去48時間のMETAR

飛行場予報(TAF)
発表時間: 3/26 16:13 AEDT (3/26 05:13 UTC)
予報対象時間: 26日17時 AEDT ~ 27日23時 AEDT
風向・風速東北東 6m/s
視程10km以上
少しの雲 雲底高度 1,070m
26日19時 AEDT から
風向・風速北東 4m/s
視程10km以上
全天の4割程度の雲 雲底高度 610m
27日3時 AEDT から
風向・風速北西 4m/s
視程10km以上
全天の4割程度の雲 雲底高度 760m
27日11時 AEDT から
風向・風速北東 8m/s
視程10km以上
なし
27日20時 AEDT から
風向・風速北 5m/s
視程10km以上
少しの雲 雲底高度 760m
TAF YSSY 260513Z 2606/2712 07012KT 9999 FEW035
FM260800 05008KT 9999 SCT020
FM261600 32008KT 9999 SCT025
FM270000 04015KT CAVOK
FM270900 01010KT 9999 FEW025